Flight Track Log - Related Links

Times and Time Zones

All times are in EST time to prevent confusion due to time zone crossing. See the N865JM flight status page for this flight to view local times or setup timezone preferences in your user account.

Time Position Orientation Groundspeed Altitude Reporting Facility
EST Latitude Longitude Course Direction KTS MPH feet Rate Location/Type
Thu 02:59:07 PM 38.8333 -77.5667 201° Southwest 251 289 6,500  Level Potomac TRACON
Thu 03:00:07 PM 38.7667 -77.5667 180° South 263 303 9,500 2,561 Climbing Potomac TRACON
Thu 03:01:58 PM 38.6303 -77.5664 180° South 279 321 13,800 2,421 Climbing Washington Center
Thu 03:02:58 PM 38.5406 -77.5664 180° South 299 344 16,400 2,331 Climbing Washington Center
Thu 03:03:00 PM 38.3706 -77.5961 218° Southwest  Level FlightAware Approximate
Thu 03:03:59 PM 38.4447 -77.5667 180° South 329 379 18,500  Level Washington Center
Thu 03:05:00 PM 38.3544 -77.6014 197° South 342 394 20,900 1,261 Climbing Washington Center
Thu 03:05:58 PM 38.2903 -77.6975 230° Southwest 334 384 21,000 966 Climbing Washington Center
Thu 03:06:58 PM 38.2322 -77.8017 235° Southwest 346 398 22,800 2,231 Climbing Washington Center
Thu 03:07:59 PM 38.1719 -77.9028 233° Southwest 357 411 25,500 2,066 Climbing Washington Center
Thu 03:09:00 PM 38.1075 -78.0011 230° Southwest 363 418 27,000 1,508 Climbing Washington Center
Thu 03:10:58 PM 37.9697 -78.1969 228° Southwest 374 430 30,000 1,039 Climbing Washington Center
Thu 03:11:59 PM 37.8781 -78.2858 217° Southwest 388 447 30,100 738 Climbing Washington Center
Thu 03:13:00 PM 37.7908 -78.3694 217° Southwest 403 464 31,500 1,388 Climbing Washington Center
Thu 03:14:00 PM 37.7033 -78.4475 215° Southwest 403 464 32,900 1,008 Climbing Washington Center
Thu 03:14:59 PM 37.6136 -78.5333 217° Southwest 386 444 33,500 1,109 Climbing Washington Center
Thu 03:15:59 PM 37.5369 -78.6036 216° Southwest 365 420 35,100 1,261 Climbing Washington Center
Thu 03:16:58 PM 37.4600 -78.6764 217° Southwest 354 407 36,000 450 Climbing Washington Center
Thu 03:17:59 PM 37.3850 -78.7467 217° Southwest 348 400 36,000  Level Washington Center
Thu 03:19:00 PM 37.3081 -78.8192 217° Southwest 348 400 36,000  Level Washington Center
Thu 03:20:00 PM 37.2311 -78.8889 216° Southwest 348 400 36,000  Level Washington Center
Thu 03:21:00 PM 37.1625 -78.9514 216° Southwest 348 400 36,000  Level Washington Center
Thu 03:22:00 PM 37.0875 -79.0208 216° Southwest 348 400 36,000  Level Washington Center
Thu 03:22:59 PM 37.0125 -79.0903 216° Southwest 348 400 36,000  Level Washington Center
Thu 03:23:59 PM 36.9375 -79.1622 217° Southwest 348 400 36,000  Level Washington Center
Thu 03:25:00 PM 36.8644 -79.2317 217° Southwest 348 400 36,000  Level Washington Center
Thu 03:26:00 PM 36.7808 -79.3056 215° Southwest 348 400 36,000  Level Washington Center
Thu 03:26:58 PM 36.7056 -79.3744 216° Southwest 348 400 36,000  Level Washington Center
Thu 03:27:59 PM 36.6325 -79.4408 216° Southwest 348 400 36,000  Level Washington Center
Thu 03:28:59 PM 36.5594 -79.5094 217° Southwest 348 400 36,000  Level Washington Center
Thu 03:29:59 PM 36.4861 -79.5756 216° Southwest 343 395 36,000  Level Washington Center
Thu 03:31:00 PM 36.4172 -79.6392 217° Southwest 343 395 36,000  Level Washington Center
Thu 03:32:53 PM 36.2636 -79.7719 215° Southwest 349 402 36,000  Level Atlanta Center
Thu 03:33:53 PM 36.1869 -79.8456 218° Southwest 349 402 36,000  Level Atlanta Center
Thu 03:34:53 PM 36.1178 -79.9031 214° Southwest 349 402 36,000  Level Atlanta Center
Thu 03:35:53 PM 36.0256 -79.9461 201° Southwest 344 396 36,000  Level Atlanta Center
Thu 03:36:53 PM 35.9306 -79.9742 193° South 349 402 36,000  Level Atlanta Center
Thu 03:37:53 PM 35.8336 -80.0097 197° South 359 413 36,000  Level Atlanta Center
Thu 03:38:53 PM 35.7283 -80.0431 194° South 359 413 36,000  Level Atlanta Center
Thu 03:39:53 PM 35.6336 -80.0783 197° South 359 413 36,000  Level Atlanta Center
Thu 03:40:53 PM 35.5364 -80.1111 195° South 359 413 36,000  Level Atlanta Center
Thu 03:41:53 PM 35.4414 -80.1411 194° South 359 413 36,000  Level Atlanta Center
Thu 03:42:53 PM 35.3550 -80.1733 197° South 359 413 36,000  Level Atlanta Center
Thu 03:43:53 PM 35.2619 -80.2031 195° South 359 413 36,000  Level Atlanta Center
Thu 03:45:24 PM 35.1106 -80.2536 195° South 354 407 36,000  Level Jacksonville Center
Thu 03:46:24 PM 35.0172 -80.2844 195° South 354 407 36,000  Level Jacksonville Center
Thu 03:47:24 PM 34.9242 -80.3178 196° South 354 407 36,000  Level Jacksonville Center
Thu 03:48:24 PM 34.8289 -80.3483 195° South 354 407 36,000  Level Jacksonville Center
Thu 03:49:24 PM 34.7375 -80.3739 193° South 354 407 36,000  Level Jacksonville Center
Thu 03:50:24 PM 34.6442 -80.4042 195° South 354 407 36,000  Level Jacksonville Center
Thu 03:51:24 PM 34.5511 -80.4397 197° South 354 407 36,000  Level Jacksonville Center
Thu 03:52:24 PM 34.4578 -80.4675 194° South 354 407 36,000  Level Jacksonville Center
Thu 03:53:24 PM 34.3667 -80.4978 195° South 354 407 36,000  Level Jacksonville Center
Thu 03:54:24 PM 34.2733 -80.5306 196° South 354 407 36,000  Level Jacksonville Center
Thu 03:55:24 PM 34.1800 -80.5581 194° South 354 407 36,000  Level Jacksonville Center
Thu 03:56:24 PM 34.0867 -80.5883 195° South 354 407 36,000  Level Jacksonville Center
Thu 03:57:24 PM 33.9933 -80.6183 195° South 354 407 36,000  Level Jacksonville Center
Thu 03:58:24 PM 33.9000 -80.6456 194° South 354 407 36,000  Level Jacksonville Center
Thu 03:59:24 PM 33.8067 -80.6806 197° South 354 407 36,000  Level Jacksonville Center
Thu 04:00:24 PM 33.7153 -80.7103 195° South 354 407 36,000  Level Jacksonville Center
Thu 04:01:24 PM 33.6219 -80.7375 194° South 354 407 36,000  Level Jacksonville Center
Thu 04:02:24 PM 33.5264 -80.7672 195° South 354 407 36,000  Level Jacksonville Center
Thu 04:03:24 PM 33.4350 -80.7969 195° South 354 407 36,000  Level Jacksonville Center
Thu 04:04:24 PM 33.3436 -80.8264 195° South 354 407 36,000  Level Jacksonville Center
Thu 04:05:24 PM 33.2522 -80.8558 195° South 349 402 36,000  Level Jacksonville Center
Thu 04:06:24 PM 33.1672 -80.8800 193° South 349 402 36,000  Level Jacksonville Center
Thu 04:07:24 PM 33.0758 -80.9119 196° South 349 402 36,000  Level Jacksonville Center
Thu 04:08:24 PM 32.9844 -80.9411 195° South 349 402 36,000  Level Jacksonville Center
Thu 04:09:24 PM 32.8908 -80.9678 193° South 349 402 36,000  Level Jacksonville Center
Thu 04:10:24 PM 32.7975 -80.9994 196° South 349 402 36,000  Level Jacksonville Center
Thu 04:11:24 PM 32.7061 -81.0261 194° South 349 402 36,000  Level Jacksonville Center
Thu 04:12:24 PM 32.6064 -81.0578 195° South 343 395 36,000  Level Jacksonville Center
Thu 04:13:24 PM 32.5106 -81.0894 196° South 343 395 36,000  Level Jacksonville Center
Thu 04:14:24 PM 32.4275 -81.1081 191° South 338 389 36,000  Level Jacksonville Center
Thu 04:15:24 PM 32.3211 -81.1103 181° South 355 409 36,000  Level Jacksonville Center
Thu 04:16:24 PM 32.2208 -81.1097 180° South 367 422 36,000  Level Jacksonville Center
Thu 04:17:24 PM 32.1186 -81.1092 180° South 367 422 36,000  Level Jacksonville Center
Thu 04:18:24 PM 32.0161 -81.1089 180° South 367 422 36,000  Level Jacksonville Center
Thu 04:19:24 PM 31.9139 -81.1108 181° South 367 422 36,000  Level Jacksonville Center
Thu 04:20:24 PM 31.8011 -81.1081 179° South 361 415 36,000  Level Jacksonville Center
Thu 04:21:24 PM 31.7031 -81.1075 180° South 363 418 36,000  Level Jacksonville Center
Thu 04:22:24 PM 31.6111 -81.1094 181° South 363 418 36,000  Level Jacksonville Center
Thu 04:23:24 PM 31.5025 -81.1089 180° South 363 418 36,000  Level Jacksonville Center
Thu 04:24:24 PM 31.4044 -81.1083 180° South 363 418 36,000  Level Jacksonville Center
Thu 04:25:24 PM 31.3147 -81.1125 182° South 363 418 36,000  Level Jacksonville Center
Thu 04:26:24 PM 31.2167 -81.1094 178° South 363 418 36,000  Level Jacksonville Center
Thu 04:27:24 PM 31.1164 -81.1114 181° South 363 418 36,000  Level Jacksonville Center
Thu 04:28:24 PM 31.0139 -81.1086 179° South 363 418 36,000  Level Jacksonville Center
Thu 04:29:24 PM 30.9158 -81.1103 181° South 363 418 36,000  Level Jacksonville Center
Thu 04:30:24 PM 30.8178 -81.1097 180° South 363 418 36,000  Level Jacksonville Center
Thu 04:31:24 PM 30.7175 -81.1092 180° South 363 418 36,000  Level Jacksonville Center
Thu 04:32:24 PM 30.6153 -81.1089 180° South 363 418 36,000  Level Jacksonville Center
Thu 04:33:24 PM 30.5150 -81.1106 181° South 363 418 36,000  Level Jacksonville Center
Thu 04:34:24 PM 30.4169 -81.1100 180° South 363 418 36,000  Level Jacksonville Center
Thu 04:35:24 PM 30.3147 -81.1119 181° South 363 418 36,000  Level Jacksonville Center
Thu 04:36:24 PM 30.2144 -81.1114 180° South 363 418 36,000  Level Jacksonville Center
Thu 04:37:24 PM 30.1122 -81.1108 180° South 363 418 36,000  Level Jacksonville Center
Thu 04:38:24 PM 29.9994 -81.1131 181° South 363 418 36,000  Level Jacksonville Center
Thu 04:39:24 PM 29.8992 -81.1100 178° South 363 418 36,000  Level Jacksonville Center
Thu 04:40:24 PM 29.7967 -81.1047 177° South 363 418 36,000  Level Jacksonville Center
Thu 04:41:24 PM 29.6917 -81.0611 160° South 376 433 36,000  Level Jacksonville Center
Thu 04:42:24 PM 29.5889 -81.0225 162° South 381 438 36,000  Level Jacksonville Center
Thu 04:44:44 PM 29.3506 -80.9269 161° South 394 453 36,000  Level Miami Center
Thu 04:45:44 PM 29.2456 -80.8875 162° South 399 459 36,000  Level Miami Center
Thu 04:46:44 PM 29.1403 -80.8478 162° South 399 459 36,000  Level Miami Center
Thu 04:47:44 PM 29.0331 -80.8061 161° South 394 453 36,000  Level Miami Center
Thu 04:48:44 PM 28.9275 -80.7667 162° South 404 465 36,000  Level Miami Center
Thu 04:49:44 PM 28.8328 -80.7303 161° South 398 458 36,000  Level Miami Center
Thu 04:50:44 PM 28.7275 -80.6864 160° South 404 465 36,000 -550 Level Miami Center
Thu 04:51:44 PM 28.6144 -80.6161 151° Southeast 409 471 34,900 -1,600 Descending Miami Center
Thu 04:52:44 PM 28.5164 -80.5444 147° Southeast 425 489 32,800 -2,300 Descending Miami Center
Thu 04:53:44 PM 28.4139 -80.4703 148° Southeast 430 495 30,300 -2,500 Descending Miami Center
Thu 04:54:44 PM 28.3217 -80.4036 148° Southeast 430 495 27,800 -2,500 Descending Miami Center
Thu 04:55:44 PM 28.2231 -80.3344 148° Southeast 425 489 25,300 -2,750 Descending Miami Center
Thu 04:56:44 PM 28.1136 -80.2911 161° South 396 456 22,300 -2,700 Descending Miami Center
Thu 04:57:44 PM 28.0117 -80.2694 169° South 376 433 19,900 -2,250 Descending Miami Center
Thu 04:58:44 PM 27.9183 -80.2500 170° South 371 427 17,800 -2,250 Descending Miami Center
Thu 04:59:44 PM 27.8186 -80.2306 170° South 371 427 15,400 -2,250 Descending Miami Center
Thu 05:00:44 PM 27.7189 -80.2114 170° South 371 427 13,300 -1,500 Descending Miami Center
Thu 05:01:44 PM 27.6231 -80.1944 171° South 340 391 12,400 -1,050 Descending Miami Center
Thu 05:02:44 PM 27.5358 -80.1778 170° South 322 371 11,200 -1,150 Descending Miami Center
Thu 05:03:44 PM 27.4506 -80.1614 170° South 322 371 10,100 -550 Descending Miami Center
Thu 05:04:44 PM 27.3867 -80.1267 154° Southeast 293 337 10,100 -50 Level Miami Center
Thu 05:05:44 PM 27.3167 -80.0850 152° Southeast 280 322 10,000 -50 Descending Miami Center
Thu 05:06:44 PM 27.2361 -80.0431 155° Southeast 280 322 10,000 -250 Level Miami Center
Thu 05:07:44 PM 27.1594 -80.0106 159° South 291 335 9,500 -950 Descending Miami Center
Thu 05:08:44 PM 27.0828 -79.9875 165° South 291 335 8,100 -1,400 Descending Miami Center
Thu 05:09:44 PM 27.0161 -79.9881 180° South 275 316 6,700 -1,200 Descending Miami Center
Thu 05:10:44 PM 26.9492 -79.9864 179° South 262 302 5,700 -1,200 Descending Miami Center
Thu 05:11:44 PM 26.8739 -79.9867 180° South 249 287 4,300 -850 Descending Miami Center
Thu 05:12:44 PM 26.8069 -79.9964 187° South 242 278 4,000 -150 Descending Miami Center
Thu 05:13:44 PM 26.7425 -79.9831 170° South 241 277 4,000  Level Miami Center
Thu 05:15:00 PM 26.6832 -80.0956 265° West  Level Estimated
Thu 05:22:00 PM 26.6832 -80.0956 110° East  Level Estimated
Thu 05:23:00 PM 26.6832 -80.0956 110° East  Level Estimated
Thu 05:24:00 PM 26.6832 -80.0956 110° East  Level Estimated
Thu 05:25:00 PM 26.6832 -80.0956 110° East  Level Estimated
Thu 05:26:00 PM 26.6832 -80.0956 110° East  Level Estimated
Thu 05:27:00 PM 26.6832 -80.0956 110° East  Level Estimated
Thu 05:28:00 PM 26.6832 -80.0956 110° East  Level Estimated
Thu 05:29:00 PM 26.6832 -80.0956 110° East  Level Estimated
Thu 05:30:00 PM 26.6832 -80.0956 110° East  Level Estimated
Thu 05:31:00 PM 26.6832 -80.0956 110° East  Level Estimated
Thu 05:32:00 PM 26.6832 -80.0956 110° East  Level Estimated

Login

Don't have an account? Register now (free) for customized features, flight alerts, and more!